Terminal Aerodrome Forecast
Issued by NWS

Home | Current Version | Previous Version | Text Only | Print | Product List | Glossary On
Versions: 1 2 3 4 5 6 7 8 9 10 11 12 13 14 15 16 17 18
000
FTAK31 PAJN 300535
TAFAGY
TAF
PAGY 300535Z 3006/3106 VRB03KT P6SM BKN070
     FM301500 VRB05KT P6SM VCSH OVC050
     FM301900 VRB05KT P6SM -SHRA OVC040
     FM310200 21008KT P6SM -SHRA BKN040 OVC060
      AMD LTD TO CLD VIS AND WIND=

USA.gov is the U.S. government's official web portal to all federal, state and local government web resources and services.